createdAt,value
2023-04-05T00:02:03.696Z,98364.59
2023-04-05T00:04:35.713Z,98369.78
2023-04-05T00:07:09.156Z,98370.00
2023-04-05T00:09:38.884Z,98369.16
2023-04-05T00:12:07.962Z,98365.31
2023-04-05T00:14:36.675Z,98374.91
2023-04-05T00:17:05.739Z,98375.63
2023-04-05T00:19:36.145Z,98373.84
2023-04-05T00:22:05.878Z,98377.19
2023-04-05T00:24:35.067Z,98383.41
2023-04-05T00:27:03.869Z,98382.59
2023-04-05T00:29:32.943Z,98381.84
2023-04-05T00:32:01.817Z,98378.56
2023-04-05T00:34:30.895Z,98377.06
2023-04-05T00:37:00.206Z,98375.44
2023-04-05T00:39:29.420Z,98378.81
2023-04-05T00:41:58.296Z,98379.69
2023-04-05T00:44:27.777Z,98381.63
2023-04-05T00:46:57.318Z,98380.81
2023-04-05T00:49:26.413Z,98387.66
2023-04-05T00:51:55.386Z,98383.44
2023-04-05T00:54:26.621Z,98394.34
2023-04-05T00:56:57.573Z,98392.41
2023-04-05T00:59:32.450Z,98396.88
2023-04-05T01:02:18.062Z,98399.16
2023-04-05T01:04:57.263Z,98405.38
2023-04-05T01:07:35.354Z,98403.47
2023-04-05T01:10:08.430Z,98410.59
2023-04-05T01:12:39.988Z,98422.63
2023-04-05T01:15:09.724Z,98415.81
2023-04-05T01:17:40.211Z,98414.84
2023-04-05T01:20:12.761Z,98426.72
2023-04-05T01:23:04.346Z,98430.59
2023-04-05T01:25:37.941Z,98433.66
2023-04-05T01:28:44.272Z,98443.69
2023-04-05T01:31:28.347Z,98441.34
2023-04-05T01:34:30.461Z,98446.00
2023-04-05T01:37:04.695Z,98449.13
2023-04-05T01:39:36.034Z,98449.44
2023-04-05T01:42:07.028Z,98458.97
2023-04-05T01:44:36.206Z,98459.72
2023-04-05T01:47:05.094Z,98455.00
2023-04-05T01:49:34.498Z,98461.34
2023-04-05T01:52:03.459Z,98459.72
2023-04-05T01:54:32.504Z,98462.72
2023-04-05T01:57:01.481Z,98461.69
2023-04-05T01:59:30.918Z,98462.63
2023-04-05T02:02:01.493Z,98467.16
2023-04-05T02:04:30.458Z,98473.75
2023-04-05T02:06:59.436Z,98472.50
2023-04-05T02:09:28.481Z,98470.00
2023-04-05T02:11:57.616Z,98483.09
2023-04-05T02:14:27.066Z,98484.81
2023-04-05T02:16:57.494Z,98487.44
2023-04-05T02:19:26.955Z,98486.09
2023-04-05T02:21:55.984Z,98497.91
2023-04-05T02:24:25.139Z,98495.47
2023-04-05T02:26:54.038Z,98501.69
2023-04-05T02:29:23.002Z,98495.94
2023-04-05T02:31:51.935Z,98500.31
2023-04-05T02:34:22.725Z,98507.88
2023-04-05T02:36:55.085Z,98507.84
2023-04-05T02:39:24.215Z,98523.16
2023-04-05T02:41:53.060Z,98517.75
2023-04-05T02:44:22.004Z,98512.06
2023-04-05T02:46:54.834Z,98526.19
2023-04-05T02:49:29.864Z,98530.56
2023-04-05T02:52:01.906Z,98536.09
2023-04-05T02:54:31.714Z,98532.44
2023-04-05T02:57:04.357Z,98534.13
2023-04-05T02:59:43.685Z,98539.94
2023-04-05T03:02:14.576Z,98542.72
2023-04-05T03:04:45.748Z,98546.78
2023-04-05T03:07:19.586Z,98548.75
2023-04-05T03:09:49.953Z,98550.59
2023-04-05T03:12:19.944Z,98550.34
2023-04-05T03:14:49.066Z,98561.84
2023-04-05T03:17:22.240Z,98559.13
2023-04-05T03:20:01.747Z,98562.22
2023-04-05T03:22:31.170Z,98567.84
2023-04-05T03:25:00.298Z,98575.00
2023-04-05T03:27:30.092Z,98574.13
2023-04-05T03:30:07.152Z,98572.88
2023-04-05T03:32:40.837Z,98577.06
2023-04-05T03:35:20.160Z,98569.72
2023-04-05T03:37:49.538Z,98568.88
2023-04-05T03:40:19.260Z,98568.75
2023-04-05T03:42:49.816Z,98569.19
2023-04-05T03:45:23.336Z,98582.31
2023-04-05T03:47:55.984Z,98581.72
2023-04-05T03:50:25.523Z,98583.00
2023-04-05T03:52:54.737Z,98585.94
2023-04-05T03:55:25.190Z,98581.72
2023-04-05T03:57:55.124Z,98574.84
2023-04-05T04:00:29.429Z,98585.88
2023-04-05T04:03:11.697Z,98576.59
2023-04-05T04:05:44.711Z,98575.03
2023-04-05T04:08:14.498Z,98584.56
2023-04-05T04:10:43.346Z,98582.94
2023-04-05T04:13:25.904Z,98587.63
2023-04-05T04:16:05.065Z,98589.50
2023-04-05T04:18:55.330Z,98596.84
2023-04-05T04:21:40.428Z,98597.34
2023-04-05T04:24:21.602Z,98592.66
2023-04-05T04:26:50.709Z,98596.09
2023-04-05T04:29:47.595Z,98588.16
2023-04-05T04:32:54.173Z,98589.56
2023-04-05T04:35:41.817Z,98595.50
2023-04-05T04:38:35.583Z,98600.25
2023-04-05T04:41:21.031Z,98601.19
2023-04-05T04:44:07.940Z,98600.22
2023-04-05T04:47:04.134Z,98601.47
2023-04-05T04:49:47.718Z,98604.44
2023-04-05T04:52:16.895Z,98607.09
2023-04-05T04:54:48.144Z,98600.59
2023-04-05T04:57:17.278Z,98604.72
2023-04-05T04:59:46.117Z,98607.59
2023-04-05T05:02:15.071Z,98596.09
2023-04-05T05:04:44.628Z,98602.34
2023-04-05T05:07:13.757Z,98592.97
2023-04-05T05:09:42.535Z,98591.22
2023-04-05T05:12:11.615Z,98591.34
2023-04-05T05:14:40.402Z,98591.69
2023-04-05T05:17:09.579Z,98592.22
2023-04-05T05:19:38.518Z,98588.84
2023-04-05T05:22:07.520Z,98577.63
2023-04-05T05:24:36.377Z,98579.06
2023-04-05T05:27:05.556Z,98581.09
2023-04-05T05:29:34.302Z,98578.50
2023-04-05T05:32:03.775Z,98576.19
2023-04-05T05:34:32.741Z,98576.19
2023-04-05T05:37:01.856Z,98571.13
2023-04-05T05:39:30.611Z,98565.88
2023-04-05T05:41:59.954Z,98564.28
2023-04-05T05:44:29.580Z,98560.72
2023-04-05T05:46:59.861Z,98557.41
2023-04-05T05:49:28.992Z,98556.66
2023-04-05T05:51:58.180Z,98568.31
2023-04-05T05:54:27.675Z,98561.31
2023-04-05T05:56:56.824Z,98564.59
2023-04-05T05:59:26.430Z,98557.47
2023-04-05T06:01:56.621Z,98553.00
2023-04-05T06:04:25.738Z,98551.81
2023-04-05T06:06:55.650Z,98554.16
2023-04-05T06:09:24.833Z,98554.84
2023-04-05T06:11:56.742Z,98561.16
2023-04-05T06:14:26.167Z,98565.03
2023-04-05T06:16:54.922Z,98558.06
2023-04-05T06:19:24.203Z,98553.56
2023-04-05T06:21:58.588Z,98551.06
2023-04-05T06:24:28.253Z,98553.00
2023-04-05T06:26:57.755Z,98545.59
2023-04-05T06:29:27.126Z,98535.75
2023-04-05T06:31:56.570Z,98527.06
2023-04-05T06:34:25.672Z,98538.44
2023-04-05T06:40:54.531Z,98529.78
2023-04-05T06:43:23.472Z,98528.94
2023-04-05T06:45:52.434Z,98531.47
2023-04-05T06:48:22.307Z,98529.56
2023-04-05T06:51:06.557Z,98533.59
2023-04-05T06:53:36.294Z,98526.75
2023-04-05T06:56:05.556Z,98524.88
2023-04-05T06:58:34.567Z,98533.66
2023-04-05T07:01:05.228Z,98526.94
2023-04-05T07:03:34.810Z,98514.34
2023-04-05T07:06:03.957Z,98513.28
2023-04-05T07:08:34.411Z,98510.75
2023-04-05T07:11:03.532Z,98498.34
2023-04-05T07:13:34.026Z,98497.41
2023-04-05T07:16:04.384Z,98498.69
2023-04-05T07:18:33.428Z,98486.53
2023-04-05T07:21:02.642Z,98485.09
2023-04-05T07:23:32.250Z,98481.09
2023-04-05T07:26:06.699Z,98492.88
2023-04-05T07:28:37.510Z,98486.75
2023-04-05T07:31:08.145Z,98486.81
2023-04-05T07:33:37.229Z,98482.16
2023-04-05T07:36:06.526Z,98482.53
2023-04-05T07:38:35.492Z,98478.31
2023-04-05T07:41:06.989Z,98465.44
2023-04-05T07:43:35.877Z,98464.47
2023-04-05T07:46:08.127Z,98470.75
2023-04-05T07:48:37.365Z,98459.34
2023-04-05T07:51:08.226Z,98460.53
2023-04-05T07:53:38.774Z,98451.56
2023-04-05T07:56:12.953Z,98450.09
2023-04-05T07:58:42.966Z,98452.41
2023-04-05T08:01:14.896Z,98439.78
2023-04-05T08:04:02.638Z,98436.97
2023-04-05T08:06:32.213Z,98438.75
2023-04-05T08:09:01.483Z,98439.97
2023-04-05T08:11:30.585Z,98429.44
2023-04-05T08:13:59.735Z,98432.81
2023-04-05T08:16:29.580Z,98430.25
2023-04-05T08:18:58.670Z,98425.28
2023-04-05T08:21:28.494Z,98425.53
2023-04-05T08:23:57.523Z,98419.19
2023-04-05T08:26:26.917Z,98411.16
2023-04-05T08:28:56.013Z,98408.16
2023-04-05T08:31:25.197Z,98392.13
2023-04-05T08:33:56.531Z,98380.28
2023-04-05T08:36:25.625Z,98385.69
2023-04-05T08:38:54.450Z,98381.94
2023-04-05T08:41:25.544Z,98377.50
2023-04-05T08:43:59.550Z,98374.50
2023-04-05T08:46:30.475Z,98364.97
2023-04-05T08:49:00.009Z,98359.06
2023-04-05T08:51:29.301Z,98355.88
2023-04-05T08:53:58.458Z,98350.50
2023-04-05T08:56:31.319Z,98350.34
2023-04-05T08:59:12.717Z,98349.34
2023-04-05T09:01:49.965Z,98340.63
2023-04-05T09:04:32.562Z,98343.63
2023-04-05T09:07:04.201Z,98340.47
2023-04-05T09:09:37.374Z,98339.84
2023-04-05T09:12:08.669Z,98340.47
2023-04-05T09:14:39.948Z,98334.28
2023-04-05T09:17:09.710Z,98331.53
2023-04-05T09:19:38.811Z,98332.63
2023-04-05T09:22:10.111Z,98330.59
2023-04-05T09:24:47.899Z,98327.56
2023-04-05T09:27:22.097Z,98331.63
2023-04-05T09:29:59.464Z,98325.69
2023-04-05T09:32:32.148Z,98323.41
2023-04-05T09:35:05.564Z,98311.28
2023-04-05T09:37:38.217Z,98306.34
2023-04-05T09:40:08.260Z,98303.03
2023-04-05T09:42:47.854Z,98298.31
2023-04-05T09:45:19.613Z,98299.66
2023-04-05T09:47:58.501Z,98302.03
2023-04-05T09:50:28.200Z,98295.13
2023-04-05T09:53:16.790Z,98288.16
2023-04-05T09:55:47.915Z,98284.16
2023-04-05T09:58:24.219Z,98291.69
2023-04-05T10:01:09.743Z,98284.47
2023-04-05T10:03:51.777Z,98273.38
2023-04-05T10:10:28.406Z,98275.06
2023-04-05T10:12:59.146Z,98278.66
2023-04-05T10:16:32.974Z,98274.25
2023-04-05T10:19:04.032Z,98270.63
2023-04-05T10:21:43.225Z,98263.72
2023-04-05T10:24:15.083Z,98252.38
2023-04-05T10:27:00.760Z,98243.00
2023-04-05T10:29:48.496Z,98248.88
2023-04-05T10:32:32.689Z,98234.97
2023-04-05T10:35:24.245Z,98241.53
2023-04-05T10:38:01.385Z,98232.16
2023-04-05T10:40:34.268Z,98235.84
2023-04-05T10:43:05.620Z,98230.75
2023-04-05T10:45:36.465Z,98228.09
2023-04-05T10:48:16.736Z,98234.97
2023-04-05T10:50:48.567Z,98244.13
2023-04-05T10:53:18.492Z,98229.84
2023-04-05T10:55:48.073Z,98212.34
2023-04-05T10:58:17.808Z,98218.78
2023-04-05T11:00:49.663Z,98210.88
2023-04-05T11:03:44.005Z,98212.19
2023-04-05T11:06:31.577Z,98208.00
2023-04-05T11:09:22.437Z,98208.25
2023-04-05T11:11:53.557Z,98210.81
2023-04-05T11:14:27.148Z,98222.53
2023-04-05T11:16:59.170Z,98229.91
2023-04-05T11:19:48.304Z,98230.56
2023-04-05T11:22:28.187Z,98240.56
2023-04-05T11:25:05.445Z,98246.91
2023-04-05T11:27:38.352Z,98238.13
2023-04-05T11:30:08.166Z,98236.00
2023-04-05T11:32:44.639Z,98239.38
2023-04-05T11:35:26.646Z,98236.00
2023-04-05T11:38:09.979Z,98224.91
2023-04-05T11:40:44.447Z,98226.69
2023-04-05T11:43:13.949Z,98215.00
2023-04-05T11:45:44.321Z,98214.72
2023-04-05T11:48:15.492Z,98208.91
2023-04-05T11:50:46.415Z,98210.09
2023-04-05T11:53:19.626Z,98217.78
2023-04-05T11:55:53.702Z,98211.25
2023-04-05T11:58:26.872Z,98211.06
2023-04-05T12:01:03.491Z,98205.41
2023-04-05T12:03:32.984Z,98204.22
2023-04-05T12:06:03.798Z,98206.06
2023-04-05T12:08:51.502Z,98213.19
2023-04-05T12:11:30.482Z,98221.22
2023-04-05T12:14:03.367Z,98238.22
2023-04-05T12:16:32.326Z,98241.50
2023-04-05T12:19:02.180Z,98249.66
2023-04-05T12:21:31.515Z,98251.13
2023-04-05T12:24:00.444Z,98269.03
2023-04-05T12:26:35.025Z,98276.50
2023-04-05T12:29:06.126Z,98286.81
2023-04-05T12:31:46.404Z,98291.41
2023-04-05T12:34:16.524Z,98304.53
2023-04-05T12:36:49.774Z,98307.88
2023-04-05T12:39:19.043Z,98305.88
2023-04-05T12:41:59.811Z,98304.00
2023-04-05T12:44:32.643Z,98301.06
2023-04-05T12:47:06.289Z,98320.56
2023-04-05T12:49:41.467Z,98309.94
2023-04-05T12:52:10.495Z,98315.22
2023-04-05T12:54:40.360Z,98324.44
2023-04-05T12:57:13.169Z,98331.66
2023-04-05T12:59:42.096Z,98330.53
2023-04-05T13:02:10.915Z,98330.56
2023-04-05T13:04:39.931Z,98327.50
2023-04-05T13:07:08.674Z,98335.00
2023-04-05T13:09:37.964Z,98349.28
2023-04-05T13:12:07.519Z,98351.41
2023-04-05T13:14:36.507Z,98361.91
2023-04-05T13:17:05.403Z,98360.78
2023-04-05T13:19:34.411Z,98366.22
2023-04-05T13:22:03.270Z,98376.81
2023-04-05T13:24:32.345Z,98367.91
2023-04-05T13:27:01.231Z,98395.09
2023-04-05T13:29:30.243Z,98405.13
2023-04-05T13:31:59.021Z,98408.88
2023-04-05T13:34:28.313Z,98412.22
2023-04-05T13:36:57.054Z,98418.88
2023-04-05T13:39:26.095Z,98434.84
2023-04-05T13:41:55.025Z,98475.84
2023-04-05T13:44:24.208Z,98485.25
2023-04-05T13:46:52.896Z,98492.78
2023-04-05T13:49:22.514Z,98507.47
2023-04-05T13:51:51.406Z,98515.34
2023-04-05T13:54:20.382Z,98519.63
2023-04-05T13:56:49.367Z,98531.63
2023-04-05T13:59:20.343Z,98547.91
2023-04-05T14:01:52.357Z,98559.00
2023-04-05T14:04:21.781Z,98565.78
2023-04-05T14:06:50.539Z,98565.22
2023-04-05T14:09:19.610Z,98564.22
2023-04-05T14:11:49.462Z,98569.03
2023-04-05T14:14:18.537Z,98575.97
2023-04-05T14:16:47.818Z,98579.03
2023-04-05T14:19:17.345Z,98552.69
2023-04-05T14:21:47.295Z,98574.28
2023-04-05T14:24:16.358Z,98591.41
2023-04-05T14:26:46.956Z,98626.31
2023-04-05T14:29:20.106Z,98654.38
2023-04-05T14:31:49.552Z,98678.00
2023-04-05T14:34:18.452Z,98682.97
2023-04-05T14:36:47.581Z,98716.63
2023-04-05T14:39:16.466Z,98714.94
2023-04-05T14:41:50.942Z,98702.06
2023-04-05T14:44:20.054Z,98644.13
2023-04-05T14:46:50.834Z,98584.78
2023-04-05T14:49:19.958Z,98549.78
2023-04-05T14:51:48.817Z,98562.47
2023-04-05T14:54:17.998Z,98566.22
2023-04-05T14:56:46.890Z,98557.25
2023-04-05T14:59:15.921Z,98498.16
2023-04-05T15:01:46.450Z,98406.25
2023-04-05T15:04:15.687Z,98376.72
2023-04-05T15:06:44.529Z,98366.56
2023-04-05T15:09:13.502Z,98358.19
2023-04-05T15:11:42.519Z,98365.66
2023-04-05T15:14:18.224Z,98388.44
2023-04-05T15:16:57.956Z,98394.31
2023-04-05T15:19:26.982Z,98386.00
2023-04-05T15:21:55.969Z,98385.09
2023-04-05T15:24:26.530Z,98392.06
2023-04-05T15:27:04.081Z,98391.81
2023-04-05T15:30:04.130Z,98396.88
2023-04-05T15:32:34.839Z,98385.06
2023-04-05T15:35:04.864Z,98384.84
2023-04-05T15:37:34.194Z,98390.56
2023-04-05T15:40:03.863Z,98403.38
2023-04-05T15:42:34.767Z,98423.22
2023-04-05T15:45:03.829Z,98421.00
2023-04-05T15:47:32.753Z,98419.59
2023-04-05T15:50:01.983Z,98414.63
2023-04-05T15:52:30.882Z,98432.63
2023-04-05T15:54:59.819Z,98445.25
2023-04-05T15:57:28.808Z,98460.97
2023-04-05T15:59:57.876Z,98466.50
2023-04-05T16:02:26.892Z,98470.28
2023-04-05T16:04:56.072Z,98487.75
2023-04-05T16:07:24.931Z,98485.75
2023-04-05T16:09:53.951Z,98495.31
2023-04-05T16:12:22.706Z,98497.75
2023-04-05T16:14:51.656Z,98505.81
2023-04-05T16:17:20.495Z,98514.31
2023-04-05T16:19:49.619Z,98518.84
2023-04-05T16:22:18.430Z,98512.69
2023-04-05T16:24:47.390Z,98515.50
2023-04-05T16:27:16.851Z,98513.72
2023-04-05T16:29:46.213Z,98539.53
2023-04-05T16:32:15.146Z,98535.81
2023-04-05T16:34:44.296Z,98538.66
2023-04-05T16:37:13.202Z,98542.44
2023-04-05T16:39:42.297Z,98534.31
2023-04-05T16:42:11.593Z,98546.44
2023-04-05T16:44:40.646Z,98557.94
2023-04-05T16:47:09.435Z,98555.41
2023-04-05T16:49:38.578Z,98566.16
2023-04-05T16:52:07.445Z,98571.66
2023-04-05T16:54:36.463Z,98579.19
2023-04-05T16:57:05.430Z,98595.81
2023-04-05T16:59:34.432Z,98585.97
2023-04-05T17:02:03.329Z,98589.88
2023-04-05T17:04:32.494Z,98602.91
2023-04-05T17:07:01.477Z,98601.63
2023-04-05T17:09:30.616Z,98595.63
2023-04-05T17:11:59.449Z,98595.97
2023-04-05T17:14:29.079Z,98578.09
2023-04-05T17:16:58.062Z,98585.44
2023-04-05T17:19:27.654Z,98581.47
2023-04-05T17:21:56.733Z,98585.09
2023-04-05T17:24:28.335Z,98580.47
2023-04-05T17:26:57.315Z,98576.09
2023-04-05T17:29:26.217Z,98573.91
2023-04-05T17:31:55.250Z,98568.09
2023-04-05T17:34:24.489Z,98559.13
2023-04-05T17:36:54.052Z,98552.47
2023-04-05T17:39:22.990Z,98549.94
2023-04-05T17:41:52.357Z,98535.63
2023-04-05T17:44:21.164Z,98539.34
2023-04-05T17:47:01.198Z,98540.69
2023-04-05T17:49:38.430Z,98552.06
2023-04-05T17:52:11.323Z,98556.66
2023-04-05T17:54:40.852Z,98550.25
2023-04-05T17:57:16.104Z,98545.59
2023-04-05T17:59:45.715Z,98545.53
2023-04-05T18:02:14.607Z,98556.03
2023-04-05T18:04:43.865Z,98546.63
2023-04-05T18:07:13.544Z,98554.03
2023-04-05T18:09:43.290Z,98559.19
2023-04-05T18:12:12.228Z,98565.13
2023-04-05T18:14:41.233Z,98564.22
2023-04-05T18:17:09.995Z,98565.31
2023-04-05T18:19:39.222Z,98561.13
2023-04-05T18:22:08.130Z,98567.56
2023-04-05T18:24:37.074Z,98573.44
2023-04-05T18:27:05.971Z,98572.69
2023-04-05T18:29:38.953Z,98574.34
2023-04-05T18:32:08.991Z,98581.44
2023-04-05T18:34:38.219Z,98585.16
2023-04-05T18:37:07.075Z,98594.69
2023-04-05T18:39:36.431Z,98607.94
2023-04-05T18:42:05.536Z,98608.78
2023-04-05T18:44:34.626Z,98600.53
2023-04-05T18:47:05.794Z,98613.03
2023-04-05T18:49:35.064Z,98600.28
2023-04-05T18:52:03.997Z,98613.16
2023-04-05T18:54:33.064Z,98632.22
2023-04-05T18:57:01.919Z,98632.69
2023-04-05T18:59:30.961Z,98627.91
2023-04-05T19:01:59.948Z,98635.59
2023-04-05T19:04:29.183Z,98642.66
2023-04-05T19:06:58.878Z,98623.25
2023-04-05T19:09:28.493Z,98625.94
2023-04-05T19:11:57.869Z,98635.94
2023-04-05T19:14:26.883Z,98633.94
2023-04-05T19:16:56.004Z,98623.53
2023-04-05T19:19:25.029Z,98614.25
2023-04-05T19:21:53.906Z,98625.44
2023-04-05T19:24:23.058Z,98615.13
2023-04-05T19:26:52.134Z,98608.53
2023-04-05T19:29:21.448Z,98603.53
2023-04-05T19:31:51.593Z,98598.34
2023-04-05T19:34:20.696Z,98605.25
2023-04-05T19:36:49.461Z,98599.31
2023-04-05T19:39:18.504Z,98592.66
2023-04-05T19:41:47.226Z,98596.38
2023-04-05T19:44:47.529Z,98595.91
2023-04-05T19:47:18.806Z,98598.53
2023-04-05T19:49:49.103Z,98600.94
2023-04-05T19:52:38.293Z,98598.97
2023-04-05T19:55:28.274Z,98587.63
2023-04-05T19:57:58.536Z,98583.72
2023-04-05T20:00:53.758Z,98573.75
2023-04-05T20:03:35.269Z,98568.97
2023-04-05T20:06:10.456Z,98569.03
2023-04-05T20:08:44.835Z,98561.25
2023-04-05T20:11:19.471Z,98557.66
2023-04-05T20:13:55.707Z,98547.31
2023-04-05T20:16:35.863Z,98534.50
2023-04-05T20:19:09.694Z,98525.88
2023-04-05T20:21:40.862Z,98524.22
2023-04-05T20:24:16.320Z,98530.19
2023-04-05T20:26:48.649Z,98528.34
2023-04-05T20:29:23.104Z,98542.13
2023-04-05T20:31:54.728Z,98539.59
2023-04-05T20:34:45.196Z,98546.44
2023-04-05T20:37:15.492Z,98549.53
2023-04-05T20:39:46.941Z,98552.28
2023-04-05T20:42:17.671Z,98556.31
2023-04-05T20:44:49.612Z,98555.41
2023-04-05T20:47:21.215Z,98552.63
2023-04-05T20:49:51.901Z,98551.94
2023-04-05T20:52:23.196Z,98560.78
2023-04-05T20:54:53.738Z,98560.81
2023-04-05T20:57:24.969Z,98557.47
2023-04-05T20:59:55.230Z,98560.16
2023-04-05T21:02:26.334Z,98556.72
2023-04-05T21:04:56.760Z,98549.13
2023-04-05T21:07:28.527Z,98547.31
2023-04-05T21:09:59.166Z,98544.72
2023-04-05T21:12:30.348Z,98544.63
2023-04-05T21:15:01.803Z,98536.88
2023-04-05T21:17:32.561Z,98534.22
2023-04-05T21:20:03.745Z,98537.31
2023-04-05T21:22:35.465Z,98543.50
2023-04-05T21:25:09.613Z,98537.31
2023-04-05T21:27:40.847Z,98540.75
2023-04-05T21:30:12.372Z,98543.41
2023-04-05T21:32:43.599Z,98545.09
2023-04-05T21:35:14.683Z,98544.31
2023-04-05T21:37:45.798Z,98553.97
2023-04-05T21:40:17.442Z,98556.78
2023-04-05T21:42:48.001Z,98557.47
2023-04-05T21:45:18.583Z,98547.06
2023-04-05T21:47:49.826Z,98548.03
2023-04-05T21:50:20.904Z,98559.38
2023-04-05T21:52:51.917Z,98559.38
2023-04-05T21:55:23.142Z,98562.75
2023-04-05T21:57:53.384Z,98561.97
2023-04-05T22:00:23.681Z,98578.03
2023-04-05T22:02:53.935Z,98585.03
2023-04-05T22:05:36.484Z,98578.72
2023-04-05T22:08:09.952Z,98587.28
2023-04-05T22:10:42.151Z,98592.66
2023-04-05T22:13:13.221Z,98599.66
2023-04-05T22:15:45.805Z,98598.81
2023-04-05T22:18:16.895Z,98600.78
2023-04-05T22:20:48.010Z,98593.53
2023-04-05T22:23:19.036Z,98596.88
2023-04-05T22:25:48.142Z,98597.16
2023-04-05T22:28:17.149Z,98604.19
2023-04-05T22:30:46.393Z,98609.31
2023-04-05T22:33:15.336Z,98602.72
2023-04-05T22:35:44.409Z,98599.94
2023-04-05T22:38:13.261Z,98599.06
2023-04-05T22:40:42.335Z,98607.13
2023-04-05T22:43:11.206Z,98592.44
2023-04-05T22:45:40.607Z,98585.00
2023-04-05T22:48:09.565Z,98581.78
2023-04-05T22:50:38.593Z,98588.84
2023-04-05T22:53:07.738Z,98586.91
2023-04-05T22:55:38.931Z,98604.41
2023-04-05T22:58:08.824Z,98604.41
2023-04-05T23:00:39.074Z,98607.09
2023-04-05T23:03:08.215Z,98603.28
2023-04-05T23:05:37.851Z,98607.41
2023-04-05T23:08:06.949Z,98602.31
2023-04-05T23:10:35.933Z,98607.53
2023-04-05T23:13:05.163Z,98605.78
2023-04-05T23:15:34.066Z,98610.13
2023-04-05T23:18:03.386Z,98611.75
2023-04-05T23:20:32.255Z,98607.50
2023-04-05T23:23:02.549Z,98609.34
2023-04-05T23:25:31.617Z,98611.84
2023-04-05T23:28:00.741Z,98616.19
2023-04-05T23:30:29.560Z,98611.00
2023-04-05T23:32:58.634Z,98618.75
2023-04-05T23:35:28.109Z,98611.75
2023-04-05T23:37:57.194Z,98611.59
2023-04-05T23:40:26.211Z,98612.59
2023-04-05T23:42:55.292Z,98608.00
2023-04-05T23:45:24.173Z,98601.06
2023-04-05T23:47:53.467Z,98591.50
2023-04-05T23:50:22.752Z,98590.59
2023-04-05T23:52:52.258Z,98598.38
2023-04-05T23:55:22.575Z,98599.22
2023-04-05T23:57:52.860Z,98601.72
